Time;durP1;ratioP1;P1;durP2;ratioP2;P2;SDS_P1;SDS_P2;PMS_P1;PMS_P2;Temp;Humidity;BMP_temperature;BMP_pressure;BME280_temperature;BME280_humidity;BME280_pressure;Samples;Min_cycle;Max_cycle;Signal;HPM_P1;HPM_P2
2021/04/16 00:00:38;;;;;;;5.30;4.32;;;4.20;91.40;;;;;;2097399;28;20032;-70
2021/04/16 00:01:38;;;;;;;5.13;4.55;;;4.20;91.80;;;;;;2097030;28;20111;-70
2021/04/16 00:02:39;;;;;;;7.32;4.43;;;4.10;91.50;;;;;;2095399;28;20032;-70
2021/04/16 00:03:39;;;;;;;6.55;4.85;;;4.10;91.80;;;;;;2104434;28;20487;-70
2021/04/16 00:04:40;;;;;;;6.25;4.10;;;4.10;91.60;;;;;;2096010;28;20079;-70
2021/04/16 00:05:41;;;;;;;6.78;5.28;;;4.10;91.50;;;;;;2104655;28;20471;-70
2021/04/16 00:06:42;;;;;;;4.43;4.03;;;4.10;91.50;;;;;;2105256;28;20027;-70
2021/04/16 00:07:43;;;;;;;4.60;4.18;;;4.10;91.50;;;;;;2105113;28;20749;-70
2021/04/16 00:08:44;;;;;;;7.60;4.47;;;4.10;91.90;;;;;;2101179;28;20032;-70
2021/04/16 00:09:45;;;;;;;5.10;4.60;;;4.10;92.10;;;;;;2101695;28;20608;-70
2021/04/16 00:10:50;;;;;;;6.05;4.85;;;4.10;92.50;;;;;;2100765;28;20418;-70
2021/04/16 00:11:51;;;;;;;5.55;5.05;;;4.10;92.90;;;;;;2088810;28;20029;-70
2021/04/16 00:12:52;;;;;;;5.30;4.75;;;4.10;93.10;;;;;;2091731;28;20086;-70
2021/04/16 00:13:53;;;;;;;4.95;4.55;;;4.00;93.40;;;;;;2097162;28;20110;-70
2021/04/16 00:14:54;;;;;;;5.13;4.70;;;4.10;93.30;;;;;;2096611;28;20067;-70
2021/04/16 00:15:55;;;;;;;6.38;4.95;;;4.10;93.50;;;;;;2097054;28;20472;-70
2021/04/16 00:16:56;;;;;;;6.47;4.97;;;4.10;94.50;;;;;;2096743;28;20035;-70
2021/04/16 00:17:57;;;;;;;5.10;4.13;;;4.10;94.40;;;;;;2097113;28;20024;-70
2021/04/16 00:18:58;;;;;;;5.32;4.45;;;4.00;93.90;;;;;;2096182;28;20028;-70
2021/04/16 00:19:58;;;;;;;5.68;4.18;;;4.10;93.90;;;;;;2096599;28;20058;-70
2021/04/16 00:20:59;;;;;;;4.45;4.05;;;4.10;93.60;;;;;;2096466;28;20528;-70
2021/04/16 00:22:00;;;;;;;5.28;4.60;;;4.10;94.20;;;;;;2095989;28;20467;-70
2021/04/16 00:23:01;;;;;;;5.93;5.10;;;4.10;94.70;;;;;;2095173;28;20418;-70
2021/04/16 00:24:03;;;;;;;5.68;4.50;;;4.10;95.20;;;;;;2091085;28;20495;-70
2021/04/16 00:25:06;;;;;;;4.50;4.05;;;4.10;95.20;;;;;;2088542;28;20029;-70
2021/04/16 00:26:07;;;;;;;6.47;4.93;;;4.10;95.20;;;;;;2095592;28;20025;-70
2021/04/16 00:27:08;;;;;;;5.45;4.95;;;4.10;95.40;;;;;;2096802;28;20052;-70
2021/04/16 00:28:10;;;;;;;5.57;4.82;;;4.10;95.50;;;;;;2096973;28;20024;-70
2021/04/16 00:29:11;;;;;;;5.55;5.03;;;4.10;95.60;;;;;;2096527;28;20119;-70
2021/04/16 00:30:14;;;;;;;5.40;4.90;;;4.10;95.70;;;;;;2097045;28;20028;-70
2021/04/16 00:31:20;;;;;;;6.05;4.85;;;4.20;95.90;;;;;;2104439;28;20020;-70
2021/04/16 00:32:21;;;;;;;4.50;4.20;;;4.10;96.20;;;;;;2095463;28;20024;-70
2021/04/16 00:33:22;;;;;;;5.22;4.63;;;4.10;96.40;;;;;;2096276;28;20070;-70
2021/04/16 00:34:25;;;;;;;4.85;4.30;;;4.20;96.80;;;;;;2096851;28;20016;-70
2021/04/16 00:35:27;;;;;;;4.90;4.43;;;4.20;97.00;;;;;;2096099;28;20972;-70
2021/04/16 00:36:29;;;;;;;5.70;4.70;;;4.20;96.90;;;;;;2096247;28;20086;-70
2021/04/16 00:37:30;;;;;;;5.47;4.90;;;4.20;97.40;;;;;;2095808;28;20078;-70
2021/04/16 00:38:30;;;;;;;5.57;4.88;;;4.20;97.30;;;;;;2097681;28;20044;-70
2021/04/16 00:39:31;;;;;;;5.25;4.18;;;4.20;97.80;;;;;;2105086;28;20062;-70
2021/04/16 00:40:37;;;;;;;5.55;5.03;;;4.20;97.50;;;;;;2104756;28;20031;-70
2021/04/16 00:41:39;;;;;;;5.13;4.57;;;4.20;98.10;;;;;;2095905;28;20048;-70
2021/04/16 00:42:40;;;;;;;5.97;4.53;;;4.20;97.90;;;;;;2087844;28;20090;-70
2021/04/16 00:43:43;;;;;;;5.13;4.63;;;4.20;98.20;;;;;;2100314;28;20033;-70
2021/04/16 00:44:44;;;;;;;4.68;4.28;;;4.20;98.00;;;;;;2096562;28;20032;-70
2021/04/16 00:45:45;;;;;;;6.68;4.60;;;4.20;98.20;;;;;;2096127;28;20053;-70
2021/04/16 00:46:54;;;;;;;6.18;5.18;;;4.30;98.20;;;;;;2096376;28;20032;-70
2021/04/16 00:47:58;;;;;;;6.28;5.03;;;4.30;98.80;;;;;;2096348;28;20149;-70
2021/04/16 00:49:02;;;;;;;5.95;5.18;;;4.30;99.40;;;;;;2096110;28;20047;-71
2021/04/16 00:50:11;;;;;;;7.25;4.35;;;4.30;99.70;;;;;;2099030;28;20383;-70
2021/04/16 00:51:30;;;;;;;6.70;5.20;;;4.30;99.90;;;;;;2100627;28;20052;-70
2021/04/16 00:52:32;;;;;;;5.57;5.05;;;4.30;99.90;;;;;;2099585;28;20020;-70
2021/04/16 00:53:34;;;;;;;5.65;5.15;;;4.30;99.90;;;;;;2103242;28;20123;-70
2021/04/16 00:54:40;;;;;;;5.32;4.82;;;4.30;99.90;;;;;;2103954;28;20025;-70
2021/04/16 00:55:42;;;;;;;5.45;4.85;;;4.30;99.90;;;;;;2104353;28;20039;-70
2021/04/16 00:56:42;;;;;;;5.05;4.55;;;4.30;99.90;;;;;;2100708;28;20617;-70
2021/04/16 00:57:43;;;;;;;5.05;4.65;;;4.30;99.90;;;;;;2095982;28;20020;-70
2021/04/16 00:58:44;;;;;;;6.35;5.30;;;4.40;99.90;;;;;;2095418;28;20055;-70
2021/04/16 00:59:49;;;;;;;6.35;4.55;;;4.40;99.90;;;;;;2096439;28;20099;-70
2021/04/16 01:00:54;;;;;;;7.22;5.13;;;4.40;99.90;;;;;;2097108;28;20016;-70
2021/04/16 01:01:59;;;;;;;6.60;4.75;;;4.40;99.90;;;;;;2096580;28;20017;-70
2021/04/16 01:03:01;;;;;;;5.88;4.82;;;4.40;99.90;;;;;;2096116;28;20025;-70
2021/04/16 01:04:02;;;;;;;5.85;5.10;;;4.50;99.90;;;;;;2096259;28;20032;-70
2021/04/16 01:05:05;;;;;;;6.10;4.90;;;4.50;99.90;;;;;;2096152;28;20104;-70
2021/04/16 01:06:07;;;;;;;5.72;5.13;;;4.50;99.90;;;;;;2096262;28;20107;-70
2021/04/16 01:07:09;;;;;;;6.75;5.03;;;4.50;99.90;;;;;;2095978;28;20066;-70
2021/04/16 01:08:11;;;;;;;8.20;5.38;;;4.50;99.90;;;;;;2100688;28;20024;-70
2021/04/16 01:09:11;;;;;;;6.15;5.15;;;4.50;99.90;;;;;;2104726;28;20467;-70
2021/04/16 01:10:14;;;;;;;7.72;5.55;;;4.60;99.90;;;;;;2104573;28;20414;-70
2021/04/16 01:11:15;;;;;;;6.63;4.68;;;4.60;99.90;;;;;;2096267;28;20031;-70
2021/04/16 01:12:18;;;;;;;6.97;4.95;;;4.60;99.90;;;;;;2095635;28;20103;-70
2021/04/16 01:13:21;;;;;;;5.68;5.13;;;4.60;99.90;;;;;;2085986;28;20055;-70
2021/04/16 01:14:23;;;;;;;8.25;5.47;;;4.60;99.90;;;;;;2087759;28;20017;-70
2021/04/16 01:15:29;;;;;;;5.78;4.60;;;4.70;99.90;;;;;;2093146;28;20023;-70
2021/04/16 01:16:32;;;;;;;11.63;5.55;;;4.70;99.90;;;;;;2096642;28;20052;-70
2021/04/16 01:17:33;;;;;;;6.70;5.63;;;4.70;99.90;;;;;;2096425;28;20099;-70
2021/04/16 01:18:39;;;;;;;6.70;5.60;;;4.70;99.90;;;;;;2096594;28;20013;-70
2021/04/16 01:19:40;;;;;;;6.60;4.95;;;4.80;99.90;;;;;;2096284;28;20024;-70
2021/04/16 01:20:44;;;;;;;7.03;5.22;;;4.80;99.90;;;;;;2095497;28;20490;-71
2021/04/16 01:21:56;;;;;;;5.80;5.20;;;4.80;99.90;;;;;;2087311;28;20443;-70
2021/04/16 01:23:02;;;;;;;5.97;5.38;;;4.80;99.90;;;;;;2088547;28;20031;-70
2021/04/16 01:24:28;;;;;;;8.35;5.53;;;4.80;99.90;;;;;;2095669;28;20031;-71
2021/04/16 01:25:30;;;;;;;6.20;4.97;;;4.80;99.90;;;;;;2096038;28;20032;-71
2021/04/16 01:26:36;;;;;;;7.68;5.63;;;4.80;99.90;;;;;;2095035;28;20068;-70
2021/04/16 01:27:36;;;;;;;7.82;5.13;;;4.80;99.90;;;;;;2095237;28;20395;-70
2021/04/16 01:28:37;;;;;;;6.70;4.68;;;4.80;99.90;;;;;;2096384;28;20059;-70
2021/04/16 01:29:46;;;;;;;6.57;5.00;;;4.80;99.90;;;;;;2096029;28;20892;-70
2021/04/16 01:31:09;;;;;;;6.95;5.53;;;4.90;99.90;;;;;;2087408;28;20031;-70
2021/04/16 01:32:13;;;;;;;8.10;5.13;;;4.80;99.90;;;;;;2088368;28;20057;-70
2021/04/16 01:33:13;;;;;;;5.85;5.20;;;4.90;99.90;;;;;;2095540;28;20092;-70
2021/04/16 01:34:17;;;;;;;5.55;4.88;;;4.90;99.90;;;;;;2095389;28;20028;-70
2021/04/16 01:35:23;;;;;;;7.65;5.07;;;4.90;99.90;;;;;;2095005;28;20083;-70
2021/04/16 01:36:32;;;;;;;5.38;4.65;;;4.90;99.90;;;;;;2096325;28;20031;-70
2021/04/16 01:37:32;;;;;;;7.30;5.18;;;4.90;99.90;;;;;;2095597;28;20064;-70
2021/04/16 01:38:34;;;;;;;6.00;4.65;;;5.00;99.90;;;;;;2096156;28;20017;-70
2021/04/16 01:39:35;;;;;;;4.95;4.45;;;5.00;99.90;;;;;;2095770;28;20032;-70
2021/04/16 01:40:35;;;;;;;7.20;4.88;;;5.00;99.90;;;;;;2100042;28;20028;-70
2021/04/16 01:41:36;;;;;;;5.43;4.72;;;5.00;99.90;;;;;;2103447;28;20020;-70
2021/04/16 01:42:37;;;;;;;5.75;5.03;;;5.10;99.90;;;;;;2103057;28;20052;-70
2021/04/16 01:43:41;;;;;;;6.10;4.60;;;5.10;99.90;;;;;;2104458;28;20024;-70
2021/04/16 01:44:44;;;;;;;7.43;4.80;;;5.10;99.90;;;;;;2103875;28;20115;-70
2021/04/16 01:45:44;;;;;;;5.25;4.63;;;5.10;99.90;;;;;;2096847;28;20032;-70
2021/04/16 01:46:55;;;;;;;5.20;4.30;;;5.10;99.90;;;;;;2096004;28;20051;-70
2021/04/16 01:47:59;;;;;;;;;;;5.10;99.90;;;;;;2089236;28;20499;-70
2021/04/16 01:49:00;;;;;;;8.88;4.43;;;5.10;99.90;;;;;;2096015;28;20006;-70
2021/04/16 01:50:01;;;;;;;7.38;4.60;;;5.10;99.90;;;;;;2092396;28;20153;-70
2021/04/16 01:51:02;;;;;;;5.22;4.70;;;5.10;99.90;;;;;;2097889;28;20507;-70
2021/04/16 01:52:04;;;;;;;5.20;4.70;;;5.10;99.90;;;;;;2095652;28;20137;-70
2021/04/16 01:53:07;;;;;;;5.82;5.05;;;5.20;99.90;;;;;;2094814;28;20024;-70
2021/04/16 01:54:18;;;;;;;6.82;4.97;;;5.20;99.90;;;;;;2095198;28;20070;-70
2021/04/16 01:55:19;;;;;;;7.20;4.70;;;5.20;99.90;;;;;;2100681;28;20024;-70
2021/04/16 01:56:20;;;;;;;5.57;4.95;;;5.20;99.90;;;;;;2100306;28;20624;-70
2021/04/16 01:57:29;;;;;;;6.65;4.70;;;5.30;99.90;;;;;;2089837;28;20427;-70
2021/04/16 01:58:30;;;;;;;7.35;4.50;;;5.30;99.90;;;;;;2092676;28;20479;-70
2021/04/16 01:59:34;;;;;;;7.47;4.93;;;5.30;99.90;;;;;;2106144;28;20383;-70
2021/04/16 02:00:38;;;;;;;5.45;4.63;;;5.30;99.90;;;;;;2102331;28;20024;-70
2021/04/16 02:01:39;;;;;;;5.38;4.53;;;5.30;99.90;;;;;;2097583;28;20674;-70
2021/04/16 02:02:39;;;;;;;5.65;4.55;;;5.30;99.90;;;;;;2103879;28;20050;-70
2021/04/16 02:03:40;;;;;;;6.95;4.45;;;5.40;99.90;;;;;;2104362;28;20114;-70
2021/04/16 02:04:41;;;;;;;4.55;4.05;;;5.40;99.90;;;;;;2097194;28;20024;-70
2021/04/16 02:05:41;;;;;;;5.53;4.57;;;5.40;99.90;;;;;;2096634;28;20037;-70
2021/04/16 02:06:43;;;;;;;6.05;4.30;;;5.40;99.90;;;;;;2097103;28;20482;-70
2021/04/16 02:07:44;;;;;;;7.88;4.55;;;5.40;99.90;;;;;;2097098;28;20028;-70
2021/04/16 02:08:44;;;;;;;5.10;4.60;;;5.40;99.90;;;;;;2096796;28;20027;-70
2021/04/16 02:09:45;;;;;;;5.20;4.70;;;5.50;99.90;;;;;;2101819;28;20028;-70
2021/04/16 02:10:46;;;;;;;7.50;4.50;;;5.50;99.90;;;;;;2104287;28;20468;-70
2021/04/16 02:11:47;;;;;;;5.20;4.70;;;5.50;99.90;;;;;;2105558;28;20016;-70
2021/04/16 02:12:49;;;;;;;6.10;4.50;;;5.50;99.90;;;;;;2105063;28;20039;-70
2021/04/16 02:13:49;;;;;;;4.93;4.45;;;5.50;99.90;;;;;;2105358;28;20039;-70
2021/04/16 02:14:52;;;;;;;6.05;4.72;;;5.50;99.90;;;;;;2105432;28;20513;-70
2021/04/16 02:15:52;;;;;;;5.57;4.30;;;5.50;99.90;;;;;;2105413;28;20039;-70
2021/04/16 02:17:00;;;;;;;5.65;4.90;;;5.50;99.90;;;;;;2105468;28;20023;-70
2021/04/16 02:18:01;;;;;;;5.25;4.25;;;5.50;99.90;;;;;;2105628;28;20017;-70
2021/04/16 02:19:02;;;;;;;6.18;4.50;;;5.50;99.90;;;;;;2105272;28;20020;-70
2021/04/16 02:20:10;;;;;;;4.75;4.22;;;5.60;99.90;;;;;;2105288;28;20017;-70
2021/04/16 02:21:11;;;;;;;10.20;4.70;;;5.60;99.90;;;;;;2105075;28;20028;-71
2021/04/16 02:22:20;;;;;;;4.53;4.13;;;5.50;99.90;;;;;;2102449;28;20020;-70
2021/04/16 02:23:21;;;;;;;5.93;5.15;;;5.50;99.90;;;;;;2096614;28;20297;-70
2021/04/16 02:24:23;;;;;;;5.22;4.72;;;5.50;99.90;;;;;;2102224;28;20089;-70
2021/04/16 02:25:23;;;;;;;5.53;4.25;;;5.50;99.90;;;;;;2105232;28;20046;-70
2021/04/16 02:26:24;;;;;;;6.40;5.05;;;5.50;99.90;;;;;;2105470;28;20076;-70
2021/04/16 02:27:26;;;;;;;6.72;4.93;;;5.50;99.90;;;;;;2101458;28;20582;-70
2021/04/16 02:28:27;;;;;;;9.35;4.13;;;5.50;99.90;;;;;;2097302;28;20103;-70
2021/04/16 02:29:28;;;;;;;5.35;4.65;;;5.50;99.90;;;;;;2096635;28;20028;-70
2021/04/16 02:30:32;;;;;;;6.97;5.07;;;5.50;99.90;;;;;;2097012;28;20356;-70
2021/04/16 02:31:33;;;;;;;7.03;5.32;;;5.60;99.90;;;;;;2096650;28;20481;-70
2021/04/16 02:32:33;;;;;;;5.85;4.80;;;5.60;99.90;;;;;;2096702;28;20025;-70
2021/04/16 02:33:34;;;;;;;5.55;4.93;;;5.60;99.90;;;;;;2096785;28;20619;-70
2021/04/16 02:34:35;;;;;;;6.45;4.60;;;5.60;99.90;;;;;;2096992;28;20025;-70
2021/04/16 02:35:35;;;;;;;4.95;4.45;;;5.60;99.90;;;;;;2096770;28;20035;-70
2021/04/16 02:36:36;;;;;;;5.63;4.32;;;5.60;99.90;;;;;;2096925;28;20045;-70
2021/04/16 02:37:37;;;;;;;5.00;4.50;;;5.60;99.90;;;;;;2104701;28;20016;-70
2021/04/16 02:38:38;;;;;;;5.60;4.25;;;5.60;99.90;;;;;;2104731;28;20461;-70
2021/04/16 02:39:39;;;;;;;4.82;4.32;;;5.60;99.90;;;;;;2104274;28;20040;-70
2021/04/16 02:40:40;;;;;;;5.03;4.53;;;5.60;99.90;;;;;;2105206;28;20075;-70
2021/04/16 02:41:41;;;;;;;5.97;5.00;;;5.60;99.90;;;;;;2104857;28;20028;-70
2021/04/16 02:42:41;;;;;;;6.18;4.45;;;5.60;99.90;;;;;;2104622;28;20024;-70
2021/04/16 02:43:42;;;;;;;6.70;4.57;;;5.60;99.90;;;;;;2105106;28;20067;-70
2021/04/16 02:44:43;;;;;;;7.15;4.22;;;5.60;99.90;;;;;;2105342;28;20045;-70
2021/04/16 02:45:45;;;;;;;5.88;4.32;;;5.60;99.90;;;;;;2105025;28;20024;-70
2021/04/16 02:46:45;;;;;;;5.15;4.65;;;5.60;99.90;;;;;;2105344;28;20039;-70
2021/04/16 02:47:46;;;;;;;6.35;3.97;;;5.60;99.90;;;;;;2105107;28;20063;-70
2021/04/16 02:48:47;;;;;;;5.95;4.50;;;5.60;99.90;;;;;;2093572;28;20104;-70
2021/04/16 02:49:47;;;;;;;4.90;4.25;;;5.60;99.90;;;;;;2088946;28;20468;-70
2021/04/16 02:50:48;;;;;;;6.47;5.32;;;5.60;99.90;;;;;;2096720;28;20420;-70
2021/04/16 02:51:49;;;;;;;6.32;4.82;;;5.60;99.90;;;;;;2096197;28;20066;-70
2021/04/16 02:52:50;;;;;;;4.68;4.18;;;5.60;99.90;;;;;;2095508;28;20055;-70
2021/04/16 02:53:50;;;;;;;5.95;5.18;;;5.60;99.90;;;;;;2096892;28;20024;-70
2021/04/16 02:54:51;;;;;;;5.43;4.85;;;5.60;99.90;;;;;;2098035;28;20029;-70
2021/04/16 02:55:51;;;;;;;9.07;4.97;;;5.60;99.90;;;;;;2104725;28;20518;-71
2021/04/16 02:56:52;;;;;;;6.55;4.88;;;5.60;99.90;;;;;;2098865;28;20372;-70
2021/04/16 02:57:53;;;;;;;6.05;4.75;;;5.60;99.90;;;;;;2097107;28;20017;-70
2021/04/16 02:58:54;;;;;;;7.00;4.97;;;5.60;99.90;;;;;;2097274;28;20017;-70
2021/04/16 02:59:54;;;;;;;7.60;4.78;;;5.60;99.90;;;;;;2097300;28;20024;-70
2021/04/16 03:00:56;;;;;;;5.50;4.32;;;5.60;99.90;;;;;;2097242;28;20104;-70
2021/04/16 03:01:57;;;;;;;6.07;4.25;;;5.50;99.90;;;;;;2102912;28;20102;-70
2021/04/16 03:02:58;;;;;;;6.53;4.47;;;5.50;99.90;;;;;;2103490;28;20025;-70
2021/04/16 03:03:59;;;;;;;5.45;4.20;;;5.60;99.90;;;;;;2102247;28;20077;-70
2021/04/16 03:04:59;;;;;;;5.43;4.90;;;5.60;99.90;;;;;;2095801;28;20078;-70
2021/04/16 03:06:00;;;;;;;6.07;4.55;;;5.60;99.90;;;;;;2096604;28;20035;-70
2021/04/16 03:07:01;;;;;;;6.53;4.95;;;5.60;99.90;;;;;;2104337;28;20069;-70
2021/04/16 03:08:01;;;;;;;6.13;4.75;;;5.50;99.90;;;;;;2104300;28;20560;-70
2021/04/16 03:09:04;;;;;;;5.30;4.80;;;5.60;99.90;;;;;;2103672;28;20181;-70
2021/04/16 03:10:07;;;;;;;6.28;5.10;;;5.60;99.90;;;;;;2103630;28;20407;-70
2021/04/16 03:11:09;;;;;;;5.63;4.20;;;5.60;99.90;;;;;;2104913;28;20379;-70
2021/04/16 03:12:10;;;;;;;6.50;4.60;;;5.60;99.90;;;;;;2105543;28;20466;-71
2021/04/16 03:13:11;;;;;;;6.18;5.00;;;5.50;99.90;;;;;;2105573;28;20099;-70
2021/04/16 03:14:11;;;;;;;5.97;4.70;;;5.60;99.90;;;;;;2105460;28;20067;-70
2021/04/16 03:15:12;;;;;;;5.18;4.53;;;5.50;99.90;;;;;;2105243;28;20450;-70
2021/04/16 03:16:14;;;;;;;9.02;4.88;;;5.50;99.90;;;;;;2105957;28;20020;-70
2021/04/16 03:17:14;;;;;;;5.22;4.72;;;5.50;99.90;;;;;;2105719;28;20023;-70
2021/04/16 03:18:15;;;;;;;6.10;4.45;;;5.50;99.90;;;;;;2100182;28;20020;-70
2021/04/16 03:19:16;;;;;;;4.47;3.97;;;5.50;99.90;;;;;;2100930;28;20028;-70
2021/04/16 03:20:20;;;;;;;4.53;4.13;;;5.50;99.90;;;;;;2105792;28;20074;-70
2021/04/16 03:21:22;;;;;;;5.82;4.97;;;5.50;99.90;;;;;;2104659;28;20035;-70
2021/04/16 03:22:22;;;;;;;6.13;4.47;;;5.50;99.90;;;;;;2095839;28;20040;-70
2021/04/16 03:23:23;;;;;;;5.32;4.80;;;5.50;99.90;;;;;;2105086;28;20848;-70
2021/04/16 03:24:23;;;;;;;4.88;4.10;;;5.50;99.90;;;;;;2104989;28;20044;-70
2021/04/16 03:25:24;;;;;;;4.25;3.85;;;5.50;99.90;;;;;;2104798;28;20522;-70
2021/04/16 03:26:27;;;;;;;5.97;4.65;;;5.50;99.90;;;;;;2105932;28;20020;-70
2021/04/16 03:27:27;;;;;;;5.57;4.50;;;5.50;99.90;;;;;;2105677;28;20032;-70
2021/04/16 03:28:28;;;;;;;5.63;4.47;;;5.50;99.90;;;;;;2105941;28;20066;-70
2021/04/16 03:29:28;;;;;;;5.05;4.55;;;5.50;99.90;;;;;;2105758;28;20452;-70
2021/04/16 03:30:30;;;;;;;8.05;5.15;;;5.50;99.90;;;;;;2105768;28;20020;-70
2021/04/16 03:31:31;;;;;;;5.22;4.38;;;5.50;99.90;;;;;;2105603;28;20024;-70
2021/04/16 03:32:31;;;;;;;4.75;4.28;;;5.50;99.90;;;;;;2096535;28;20027;-70
2021/04/16 03:33:32;;;;;;;6.32;4.32;;;5.50;99.90;;;;;;2097194;28;20036;-70
2021/04/16 03:34:33;;;;;;;5.53;5.03;;;5.50;99.90;;;;;;2096814;28;20025;-70
2021/04/16 03:35:33;;;;;;;17.20;5.55;;;5.50;99.90;;;;;;2096453;28;20103;-70
2021/04/16 03:36:34;;;;;;;5.75;5.13;;;5.50;99.90;;;;;;2097582;28;20028;-70
2021/04/16 03:37:35;;;;;;;6.25;4.82;;;5.50;99.90;;;;;;2097251;28;20644;-70
2021/04/16 03:38:35;;;;;;;6.38;4.93;;;5.50;99.90;;;;;;2097280;28;20031;-70
2021/04/16 03:39:36;;;;;;;7.22;4.93;;;5.50;99.90;;;;;;2097536;28;20040;-70
2021/04/16 03:40:37;;;;;;;5.63;4.72;;;5.60;99.90;;;;;;2096937;28;20035;-70
2021/04/16 03:41:37;;;;;;;7.35;5.50;;;5.50;99.90;;;;;;2097354;28;20102;-71
2021/04/16 03:42:38;;;;;;;5.28;4.80;;;5.60;99.90;;;;;;2096543;28;20040;-71
2021/04/16 03:43:39;;;;;;;8.50;5.07;;;5.60;99.90;;;;;;2100164;28;20383;-70
2021/04/16 03:44:40;;;;;;;5.85;5.28;;;5.60;99.90;;;;;;2104799;28;20066;-71
2021/04/16 03:45:41;;;;;;;5.75;5.10;;;5.60;99.90;;;;;;2103278;28;20070;-70
2021/04/16 03:46:42;;;;;;;5.80;5.20;;;5.60;99.90;;;;;;2098729;28;20042;-70
2021/04/16 03:47:44;;;;;;;7.72;5.10;;;5.60;99.90;;;;;;2097363;28;20059;-70
2021/04/16 03:48:44;;;;;;;6.43;5.10;;;5.60;99.90;;;;;;2096432;28;20029;-70
2021/04/16 03:49:45;;;;;;;6.25;5.63;;;5.60;99.90;;;;;;2094458;28;20112;-70
2021/04/16 03:50:46;;;;;;;6.72;5.68;;;5.60;99.90;;;;;;2101016;28;20051;-70
2021/04/16 03:51:58;;;;;;;7.80;5.10;;;5.60;99.90;;;;;;2097134;28;20656;-70
2021/04/16 03:53:01;;;;;;;12.23;5.85;;;5.60;99.90;;;;;;2091006;28;20041;-70
2021/04/16 03:54:01;;;;;;;7.20;5.10;;;5.60;99.90;;;;;;2097206;28;20107;-70
2021/04/16 03:55:03;;;;;;;7.03;5.45;;;5.60;99.90;;;;;;2099914;28;20074;-70
2021/04/16 03:56:07;;;;;;;8.40;5.70;;;5.60;99.90;;;;;;2105653;28;20023;-70
2021/04/16 03:57:09;;;;;;;6.40;5.13;;;5.60;99.90;;;;;;2098035;28;20391;-70
2021/04/16 03:58:12;;;;;;;6.82;5.03;;;5.60;99.90;;;;;;2097298;28;20027;-70
2021/04/16 03:59:13;;;;;;;9.93;6.43;;;5.60;99.90;;;;;;2096831;28;20021;-70
2021/04/16 04:00:18;;;;;;;6.60;5.50;;;5.60;99.90;;;;;;2102405;28;20051;-70
2021/04/16 04:01:19;;;;;;;7.90;5.90;;;5.60;99.90;;;;;;2098712;28;20032;-70
2021/04/16 04:02:20;;;;;;;9.32;5.45;;;5.50;99.90;;;;;;2101212;28;20027;-70
2021/04/16 04:03:21;;;;;;;11.88;5.63;;;5.60;99.90;;;;;;2104348;28;20031;-70
2021/04/16 04:04:22;;;;;;;6.55;5.50;;;5.60;99.90;;;;;;2105116;28;20028;-70
2021/04/16 04:05:23;;;;;;;6.70;5.90;;;5.60;99.90;;;;;;2096353;28;20074;-71
2021/04/16 04:06:24;;;;;;;7.72;5.32;;;5.60;99.90;;;;;;2096493;28;20016;-70
2021/04/16 04:07:24;;;;;;;7.38;5.85;;;5.60;99.90;;;;;;2096895;28;20024;-70
2021/04/16 04:08:25;;;;;;;7.35;5.50;;;5.60;99.90;;;;;;2097129;28;20117;-70
2021/04/16 04:09:26;;;;;;;8.30;5.35;;;5.60;99.90;;;;;;2096486;28;20356;-70
2021/04/16 04:10:28;;;;;;;9.85;5.82;;;5.60;99.90;;;;;;2096925;28;20031;-70
2021/04/16 04:11:28;;;;;;;6.45;5.68;;;5.60;99.90;;;;;;2096521;28;20485;-70
2021/04/16 04:12:29;;;;;;;7.22;5.68;;;5.60;99.90;;;;;;2096998;28;20037;-70
2021/04/16 04:13:30;;;;;;;5.97;5.38;;;5.50;99.90;;;;;;2102941;28;20048;-70
2021/04/16 04:14:30;;;;;;;8.48;5.43;;;5.60;99.90;;;;;;2096177;28;20042;-70
2021/04/16 04:15:31;;;;;;;6.43;5.55;;;5.60;99.90;;;;;;2097015;28;20323;-70
2021/04/16 04:16:48;;;;;;;6.20;5.57;;;5.60;99.90;;;;;;2103905;28;20039;-71
2021/04/16 04:17:49;;;;;;;8.52;5.97;;;5.50;99.90;;;;;;2105127;28;20422;-70
2021/04/16 04:18:49;;;;;;;8.00;5.95;;;5.60;99.90;;;;;;2105584;28;20126;-70
2021/04/16 04:19:50;;;;;;;9.52;6.00;;;5.60;99.90;;;;;;2105005;28;20024;-70
2021/04/16 04:20:50;;;;;;;6.47;5.60;;;5.60;99.90;;;;;;2104776;28;20028;-70
2021/04/16 04:21:53;;;;;;;7.25;5.85;;;5.60;99.90;;;;;;2103804;28;20028;-70
2021/04/16 04:22:54;;;;;;;5.90;5.20;;;5.50;99.90;;;;;;2098805;28;20032;-70
2021/04/16 04:23:54;;;;;;;5.88;4.68;;;5.60;99.90;;;;;;2096660;28;20031;-70
2021/04/16 04:24:55;;;;;;;8.75;6.80;;;5.60;99.90;;;;;;2096888;28;20649;-71
2021/04/16 04:25:56;;;;;;;6.97;4.65;;;5.50;99.90;;;;;;2096903;28;20044;-70
2021/04/16 04:26:57;;;;;;;7.78;6.63;;;5.50;99.90;;;;;;2096800;28;20534;-70
2021/04/16 04:27:59;;;;;;;8.07;6.35;;;5.50;99.90;;;;;;2097652;28;20494;-70
2021/04/16 04:29:00;;;;;;;8.55;5.43;;;5.60;99.90;;;;;;2104514;28;20032;-70
2021/04/16 04:30:00;;;;;;;5.35;4.85;;;5.60;99.90;;;;;;2103319;28;20024;-70
2021/04/16 04:31:01;;;;;;;6.80;5.60;;;5.50;99.90;;;;;;2097147;28;20029;-71
2021/04/16 04:32:02;;;;;;;8.40;5.45;;;5.60;99.90;;;;;;2094269;28;20020;-71
2021/04/16 04:33:03;;;;;;;6.90;6.18;;;5.60;99.90;;;;;;2095276;28;20104;-71
2021/04/16 04:34:04;;;;;;;7.40;5.90;;;5.60;99.90;;;;;;2095571;28;20059;-70
2021/04/16 04:35:05;;;;;;;8.43;5.90;;;5.60;99.90;;;;;;2092078;28;20029;-70
2021/04/16 04:36:06;;;;;;;8.02;6.63;;;5.60;99.90;;;;;;2091861;28;20017;-70
2021/04/16 04:37:08;;;;;;;5.68;5.07;;;5.60;99.90;;;;;;2088990;28;20013;-70
2021/04/16 04:38:09;;;;;;;10.23;5.45;;;5.60;99.90;;;;;;2094074;28;20065;-70
2021/04/16 04:39:12;;;;;;;6.55;5.53;;;5.50;99.90;;;;;;2092870;28;20026;-71
2021/04/16 04:40:13;;;;;;;7.60;5.97;;;5.60;99.90;;;;;;2092667;28;20468;-70
2021/04/16 04:41:14;;;;;;;7.75;5.90;;;5.50;99.90;;;;;;2093591;28;20051;-70
2021/04/16 04:42:15;;;;;;;7.78;6.07;;;5.50;99.90;;;;;;2091090;28;20032;-70
2021/04/16 04:43:15;;;;;;;7.10;5.35;;;5.50;99.90;;;;;;2091313;28;20371;-70
2021/04/16 04:44:17;;;;;;;6.85;6.05;;;5.50;99.90;;;;;;2093178;28;20027;-70
2021/04/16 04:45:18;;;;;;;10.23;5.45;;;5.50;99.90;;;;;;2090385;28;20016;-70
2021/04/16 04:46:19;;;;;;;10.00;5.93;;;5.50;99.90;;;;;;2099137;28;20029;-70
2021/04/16 04:47:20;;;;;;;6.38;4.72;;;5.50;99.90;;;;;;2099931;28;20107;-71
2021/04/16 04:48:20;;;;;;;4.95;4.53;;;5.50;99.90;;;;;;2090708;28;20059;-70
2021/04/16 04:49:21;;;;;;;5.85;5.25;;;5.50;99.90;;;;;;2089172;28;20036;-70
2021/04/16 04:50:25;;;;;;;7.72;5.78;;;5.50;99.90;;;;;;2091196;28;20024;-71
2021/04/16 04:51:26;;;;;;;7.97;5.40;;;5.50;99.90;;;;;;2084576;28;21402;-70
2021/04/16 04:52:33;;;;;;;9.15;5.60;;;5.50;99.90;;;;;;2089960;28;20021;-70
2021/04/16 04:53:34;;;;;;;6.50;5.68;;;5.50;99.90;;;;;;2091634;28;20380;-70
2021/04/16 04:54:35;;;;;;;7.63;5.85;;;5.50;99.90;;;;;;2090720;28;20021;-70
2021/04/16 04:55:35;;;;;;;9.13;5.05;;;5.50;99.90;;;;;;2093025;28;20017;-70
2021/04/16 04:56:37;;;;;;;9.30;4.60;;;5.50;99.90;;;;;;2092900;28;20343;-70
2021/04/16 04:57:38;;;;;;;6.40;5.43;;;5.50;99.90;;;;;;2097285;28;20025;-70
2021/04/16 04:58:39;;;;;;;6.60;5.22;;;5.50;99.90;;;;;;2097176;28;20078;-70
2021/04/16 04:59:41;;;;;;;8.05;6.28;;;5.50;99.90;;;;;;2094157;28;20029;-70
2021/04/16 05:00:41;;;;;;;7.10;6.40;;;5.50;99.90;;;;;;2095681;28;20013;-70
2021/04/16 05:01:42;;;;;;;7.78;4.93;;;5.50;99.90;;;;;;2096137;28;20042;-70
2021/04/16 05:02:43;;;;;;;7.00;5.57;;;5.50;99.90;;;;;;2097304;28;20106;-70
2021/04/16 05:03:43;;;;;;;6.18;5.57;;;5.40;99.90;;;;;;2097590;28;20031;-71
2021/04/16 05:04:44;;;;;;;8.05;5.95;;;5.40;99.90;;;;;;2097418;28;20130;-70
2021/04/16 05:05:45;;;;;;;6.60;5.60;;;5.40;99.90;;;;;;2096959;28;20070;-70
2021/04/16 05:06:45;;;;;;;5.95;5.07;;;5.50;99.90;;;;;;2095725;28;20020;-70
2021/04/16 05:07:46;;;;;;;6.45;5.20;;;5.40;99.90;;;;;;2095596;28;20112;-70
2021/04/16 05:08:46;;;;;;;7.20;5.25;;;5.40;99.90;;;;;;2094600;28;20028;-70
2021/04/16 05:09:47;;;;;;;9.70;5.85;;;5.40;99.90;;;;;;2095613;28;20491;-70
2021/04/16 05:10:47;;;;;;;6.72;5.50;;;5.50;99.90;;;;;;2093894;28;20078;-70
2021/04/16 05:11:48;;;;;;;6.65;5.20;;;5.50;99.90;;;;;;2094300;28;20503;-70
2021/04/16 05:12:49;;;;;;;7.55;5.88;;;5.50;99.90;;;;;;2095826;28;20056;-70
2021/04/16 05:13:53;;;;;;;7.40;6.38;;;5.40;99.90;;;;;;2092365;28;20029;-70
2021/04/16 05:14:53;;;;;;;9.70;7.05;;;5.50;99.90;;;;;;2091915;28;21103;-70
2021/04/16 05:15:54;;;;;;;12.65;6.85;;;5.40;99.90;;;;;;2095165;28;20028;-70
2021/04/16 05:16:56;;;;;;;10.35;6.93;;;5.40;99.90;;;;;;2093254;28;20372;-70
2021/04/16 05:17:57;;;;;;;8.65;6.82;;;5.40;99.90;;;;;;2095880;28;20017;-70
2021/04/16 05:18:59;;;;;;;8.73;6.78;;;5.40;99.90;;;;;;2093107;28;20028;-70
2021/04/16 05:20:00;;;;;;;6.97;6.20;;;5.40;99.90;;;;;;2095827;28;20062;-70
2021/04/16 05:21:01;;;;;;;9.23;7.25;;;5.40;99.90;;;;;;2095666;28;20020;-70
2021/04/16 05:22:04;;;;;;;12.88;7.32;;;5.40;99.90;;;;;;2095299;28;20039;-71
2021/04/16 05:23:05;;;;;;;7.65;6.72;;;5.40;99.90;;;;;;2095695;28;20054;-70
2021/04/16 05:24:07;;;;;;;10.43;7.50;;;5.40;99.90;;;;;;2095993;28;20013;-70
2021/04/16 05:25:09;;;;;;;8.68;6.93;;;5.40;99.90;;;;;;2097354;28;20086;-70
2021/04/16 05:26:09;;;;;;;10.93;6.78;;;5.40;99.90;;;;;;2094865;28;20033;-70
2021/04/16 05:27:13;;;;;;;11.18;7.25;;;5.50;99.90;;;;;;2093608;28;20469;-70